Country
Station

 

Weather  for  Rutland State Automatic Weather Observing/Reporting System  -  United States    United States

  
21 °C (70 °F)
    
 
 

Current METAR for Rutland State Automatic Weather Observing/Reporting System is :

KRUT 171056Z AUTO 13005KT 9SM -RA FEW026 SCT044 OVC065 21/21 A2985 RMK AO2 LTG DSNT S RAB0958 SLP115 P0011 T02110206 $

 

This is a report for Rutland State Automatic Weather Observing/Reporting System - United States.
 
The report was made 40 minutes ago, at 10:56 UTC .
The wind was blowing at a speed of 2.6 meters per second (5.8 miles per hour) from southeast (130°).
 
The temperature was 21 °C (70 °F), with a dew-point at 21 °C (70 °F).
The atmospheric pressure was 1011 hPa (29.85 inHg).
The relative humidity was 100.0%.
 
There were a few clouds at a height of 792 meters (2600 feet) and scattered clouds at a height of 1341 meters (4400 feet). The sky was overcast from a height of 1981 meter (6500 feet)
 
The overall visibility was 14.5 kilometers (9.0 miles).
 
Currently light rain.

 
 
 
 

Country :   A   B   C   D   E   F   G   H   I   J   K   L   M   N   O   P   Q   R   S   T   U   V   W   Y   Z

 

Site Info  |  Disclaimer  |  Credits  |  Privacy
Contact us  |  Add to favorites
© 2013-2018 METARs - All rights reserved